createdAt,value
2023-05-15T00:15:57.616Z,100145.22
2023-05-15T00:18:25.124Z,100144.22
2023-05-15T00:20:53.455Z,100134.16
2023-05-15T00:23:20.817Z,100132.28
2023-05-15T00:25:48.120Z,100133.81
2023-05-15T00:28:15.442Z,100126.94
2023-05-15T00:30:42.794Z,100126.59
2023-05-15T00:33:10.024Z,100131.66
2023-05-15T00:35:37.512Z,100135.06
2023-05-15T00:38:04.773Z,100130.91
2023-05-15T00:40:32.307Z,100132.16
2023-05-15T00:42:59.772Z,100131.47
2023-05-15T00:45:27.437Z,100135.25
2023-05-15T00:47:54.921Z,100142.31
2023-05-15T00:50:24.731Z,100132.13
2023-05-15T00:52:52.504Z,100131.91
2023-05-15T00:55:19.849Z,100131.72
2023-05-15T00:57:48.018Z,100132.13
2023-05-15T01:00:18.472Z,100127.69
2023-05-15T01:02:46.559Z,100128.47
2023-05-15T01:05:13.882Z,100129.00
2023-05-15T01:07:45.486Z,100125.13
2023-05-15T01:10:13.280Z,100121.59
2023-05-15T01:12:41.393Z,100126.66
2023-05-15T01:15:09.221Z,100124.78
2023-05-15T01:17:36.554Z,100127.59
2023-05-15T01:20:06.586Z,100123.13
2023-05-15T01:22:41.140Z,100119.72
2023-05-15T01:25:27.526Z,100125.06
2023-05-15T01:27:55.264Z,100124.50
2023-05-15T01:30:24.248Z,100127.25
2023-05-15T01:32:54.589Z,100134.00
2023-05-15T01:35:27.587Z,100128.94
2023-05-15T01:38:01.288Z,100130.47
2023-05-15T01:40:29.117Z,100122.34
2023-05-15T01:43:00.800Z,100118.22
2023-05-15T01:45:28.913Z,100113.44
2023-05-15T01:47:56.603Z,100105.84
2023-05-15T01:50:24.455Z,100105.25
2023-05-15T01:52:53.890Z,100106.50
2023-05-15T01:55:22.478Z,100106.00
2023-05-15T01:57:51.416Z,100110.75
2023-05-15T02:00:19.112Z,100121.47
2023-05-15T02:02:46.819Z,100123.16
2023-05-15T02:05:14.527Z,100118.88
2023-05-15T02:07:42.533Z,100113.28
2023-05-15T02:10:10.816Z,100120.91
2023-05-15T02:12:38.567Z,100126.44
2023-05-15T02:15:06.682Z,100123.00
2023-05-15T02:17:34.053Z,100120.41
2023-05-15T02:20:01.292Z,100122.38
2023-05-15T02:22:28.684Z,100121.69
2023-05-15T02:24:55.882Z,100119.94
2023-05-15T02:27:43.477Z,100126.50
2023-05-15T02:30:20.510Z,100122.22
2023-05-15T02:32:54.391Z,100114.44
2023-05-15T02:35:21.724Z,100112.22
2023-05-15T02:37:51.771Z,100113.84
2023-05-15T02:40:20.562Z,100116.28
2023-05-15T02:42:48.538Z,100110.91
2023-05-15T02:45:16.364Z,100108.31
2023-05-15T02:47:44.740Z,100105.88
2023-05-15T02:50:12.246Z,100104.81
2023-05-15T02:52:39.450Z,100095.63
2023-05-15T02:55:06.929Z,100102.53
2023-05-15T02:57:34.187Z,100106.19
2023-05-15T03:00:02.013Z,100101.00
2023-05-15T03:02:30.313Z,100101.00
2023-05-15T03:04:57.631Z,100102.53
2023-05-15T03:07:25.019Z,100097.63
2023-05-15T03:09:52.246Z,100094.00
2023-05-15T03:12:19.512Z,100100.97
2023-05-15T03:14:46.767Z,100096.69
2023-05-15T03:17:14.160Z,100104.94
2023-05-15T03:19:41.543Z,100095.53
2023-05-15T03:22:08.732Z,100103.41
2023-05-15T03:24:36.129Z,100096.56
2023-05-15T03:27:04.016Z,100098.53
2023-05-15T03:29:31.308Z,100087.06
2023-05-15T03:31:58.774Z,100094.81
2023-05-15T03:34:26.062Z,100096.69
2023-05-15T03:36:53.458Z,100098.69
2023-05-15T03:39:20.666Z,100110.00
2023-05-15T03:41:49.729Z,100111.66
2023-05-15T03:44:17.026Z,100110.16
2023-05-15T03:46:44.394Z,100105.09
2023-05-15T03:49:11.784Z,100110.75
2023-05-15T03:51:39.056Z,100107.53
2023-05-15T03:54:06.504Z,100102.50
2023-05-15T03:56:33.943Z,100113.72
2023-05-15T03:59:01.225Z,100107.53
2023-05-15T04:01:28.493Z,100116.13
2023-05-15T04:03:55.852Z,100106.88
2023-05-15T04:06:23.064Z,100109.31
2023-05-15T04:08:50.536Z,100109.16
2023-05-15T04:11:17.844Z,100108.25
2023-05-15T04:13:45.093Z,100108.47
2023-05-15T04:16:12.328Z,100102.31
2023-05-15T04:18:39.594Z,100102.72
2023-05-15T04:21:06.918Z,100105.00
2023-05-15T04:23:34.106Z,100107.50
2023-05-15T04:26:01.615Z,100109.47
2023-05-15T04:28:30.455Z,100117.72
2023-05-15T04:30:59.286Z,100114.84
2023-05-15T04:33:26.670Z,100118.97
2023-05-15T04:35:53.965Z,100125.06
2023-05-15T04:38:21.622Z,100124.31
2023-05-15T04:40:48.837Z,100127.97
2023-05-15T04:43:16.012Z,100126.28
2023-05-15T04:45:43.266Z,100127.13
2023-05-15T04:48:10.813Z,100132.44
2023-05-15T04:50:38.041Z,100127.06
2023-05-15T04:53:05.598Z,100120.94
2023-05-15T04:55:33.695Z,100122.47
2023-05-15T04:58:00.969Z,100117.13
2023-05-15T05:00:28.747Z,100117.28
2023-05-15T05:02:56.250Z,100118.81
2023-05-15T05:05:23.905Z,100120.03
2023-05-15T05:07:52.153Z,100121.19
2023-05-15T05:10:19.454Z,100124.63
2023-05-15T05:12:46.896Z,100116.53
2023-05-15T05:15:14.169Z,100117.78
2023-05-15T05:17:41.465Z,100115.81
2023-05-15T05:20:13.096Z,100120.09
2023-05-15T05:22:40.952Z,100121.00
2023-05-15T05:25:08.475Z,100132.22
2023-05-15T05:27:36.005Z,100132.09
2023-05-15T05:30:03.518Z,100125.59
2023-05-15T05:32:31.375Z,100122.94
2023-05-15T05:34:58.774Z,100119.94
2023-05-15T05:37:26.692Z,100121.31
2023-05-15T05:39:54.907Z,100124.38
2023-05-15T05:42:22.227Z,100127.25
2023-05-15T05:44:49.697Z,100120.25
2023-05-15T05:47:17.022Z,100126.94
2023-05-15T05:49:47.270Z,100121.38
2023-05-15T05:52:16.208Z,100122.66
2023-05-15T05:54:45.821Z,100118.63
2023-05-15T05:57:13.142Z,100114.50
2023-05-15T05:59:40.430Z,100113.97
2023-05-15T06:02:08.496Z,100119.44
2023-05-15T06:04:35.824Z,100115.78
2023-05-15T06:07:03.389Z,100100.75
2023-05-15T06:09:30.661Z,100111.38
2023-05-15T06:11:57.912Z,100110.00
2023-05-15T06:14:25.150Z,100114.38
2023-05-15T06:16:59.948Z,100105.53
2023-05-15T06:19:32.022Z,100106.59
2023-05-15T06:22:05.742Z,100107.25
2023-05-15T06:24:44.169Z,100113.44
2023-05-15T06:27:15.738Z,100106.50
2023-05-15T06:29:47.096Z,100112.56
2023-05-15T06:32:14.594Z,100119.31
2023-05-15T06:34:41.899Z,100114.94
2023-05-15T06:37:09.315Z,100122.25
2023-05-15T06:39:36.746Z,100110.34
2023-05-15T06:42:04.385Z,100109.97
2023-05-15T06:44:31.885Z,100109.44
2023-05-15T06:46:59.519Z,100103.28
2023-05-15T06:49:27.427Z,100093.78
2023-05-15T06:51:55.668Z,100096.75
2023-05-15T06:54:22.999Z,100090.63
2023-05-15T06:56:50.466Z,100092.50
2023-05-15T06:59:17.784Z,100090.06
2023-05-15T07:01:45.511Z,100098.09
2023-05-15T07:04:16.592Z,100100.50
2023-05-15T07:06:44.067Z,100103.88
2023-05-15T07:09:12.935Z,100106.91
2023-05-15T07:11:42.252Z,100104.75
2023-05-15T07:14:10.548Z,100098.94
2023-05-15T07:16:51.079Z,100089.59
2023-05-15T07:19:26.363Z,100093.63
2023-05-15T07:21:54.096Z,100088.50
2023-05-15T07:24:29.245Z,100088.53
2023-05-15T07:26:59.047Z,100080.00
2023-05-15T07:29:27.091Z,100089.81
2023-05-15T07:31:54.485Z,100089.84
2023-05-15T07:34:21.937Z,100080.41
2023-05-15T07:36:49.621Z,100079.94
2023-05-15T07:39:19.895Z,100080.28
2023-05-15T07:41:48.892Z,100085.38
2023-05-15T07:44:20.793Z,100090.25
2023-05-15T07:46:48.489Z,100093.38
2023-05-15T07:49:41.490Z,100093.56
2023-05-15T07:52:11.942Z,100093.75
2023-05-15T07:54:41.732Z,100079.13
2023-05-15T07:57:09.538Z,100094.75
2023-05-15T07:59:37.119Z,100092.50
2023-05-15T08:02:04.641Z,100090.13
2023-05-15T08:04:33.334Z,100090.06
2023-05-15T08:07:00.999Z,100088.63
2023-05-15T08:09:39.627Z,100087.03
2023-05-15T08:12:22.136Z,100080.84
2023-05-15T08:14:58.826Z,100077.06
2023-05-15T08:17:26.391Z,100076.13
2023-05-15T08:19:54.087Z,100079.66
2023-05-15T08:22:21.957Z,100077.34
2023-05-15T08:24:49.730Z,100079.19
2023-05-15T08:27:17.032Z,100070.97
2023-05-15T08:29:45.201Z,100072.75
2023-05-15T08:32:13.123Z,100070.19
2023-05-15T08:34:41.584Z,100066.88
2023-05-15T08:37:09.613Z,100057.59
2023-05-15T08:39:37.026Z,100054.00
2023-05-15T08:42:24.550Z,100056.34
2023-05-15T08:44:53.025Z,100054.50
2023-05-15T08:47:21.163Z,100056.03
2023-05-15T08:49:57.254Z,100065.25
2023-05-15T08:52:25.748Z,100060.56
2023-05-15T08:54:53.248Z,100079.75
2023-05-15T08:57:21.386Z,100077.25
2023-05-15T08:59:49.743Z,100071.50
2023-05-15T09:02:17.377Z,100082.59
2023-05-15T09:04:45.052Z,100091.59
2023-05-15T09:07:12.827Z,100095.59
2023-05-15T09:09:41.555Z,100095.91
2023-05-15T09:12:14.446Z,100099.22
2023-05-15T09:14:43.078Z,100098.97
2023-05-15T09:17:12.686Z,100093.91
2023-05-15T09:19:41.303Z,100101.56
2023-05-15T09:22:24.139Z,100109.50
2023-05-15T09:24:56.589Z,100107.31
2023-05-15T09:27:24.250Z,100103.69
2023-05-15T09:29:56.890Z,100105.59
2023-05-15T09:32:27.405Z,100100.41
2023-05-15T09:35:08.190Z,100111.56
2023-05-15T09:37:40.347Z,100103.84
2023-05-15T09:40:14.617Z,100104.69
2023-05-15T09:43:07.496Z,100091.03
2023-05-15T09:45:35.040Z,100112.66
2023-05-15T09:48:06.586Z,100104.44
2023-05-15T09:50:35.725Z,100123.47
2023-05-15T09:56:11.628Z,100109.06
2023-05-15T09:59:37.559Z,100104.56
2023-05-15T10:02:34.666Z,100097.59
2023-05-15T10:05:02.349Z,100100.34
2023-05-15T10:07:30.313Z,100100.97
2023-05-15T10:09:57.839Z,100110.63
2023-05-15T10:12:26.935Z,100105.00
2023-05-15T10:14:56.193Z,100100.41
2023-05-15T10:17:25.390Z,100102.75
2023-05-15T10:19:58.096Z,100107.25
2023-05-15T10:22:28.974Z,100105.47
2023-05-15T10:25:15.224Z,100098.81
2023-05-15T10:27:42.998Z,100086.88
2023-05-15T10:30:12.578Z,100088.25
2023-05-15T10:32:53.960Z,100086.84
2023-05-15T10:35:22.497Z,100091.03
2023-05-15T10:37:53.219Z,100089.78
2023-05-15T10:49:30.411Z,100092.88
2023-05-15T10:52:47.038Z,100090.34
2023-05-15T11:04:14.240Z,100062.75
2023-05-15T11:06:52.331Z,100051.00
2023-05-15T11:09:27.684Z,100041.50
2023-05-15T11:12:04.388Z,100036.63
2023-05-15T11:14:36.476Z,100034.69
2023-05-15T11:17:08.776Z,100026.63
2023-05-15T11:19:37.886Z,100027.72
2023-05-15T11:22:18.384Z,100030.63
2023-05-15T11:25:12.656Z,100027.41
2023-05-15T11:28:12.338Z,100018.84
2023-05-15T11:31:24.611Z,100022.63
2023-05-15T11:56:29.411Z,100023.50
2023-05-15T12:11:04.198Z,100024.31
2023-05-15T12:13:33.216Z,100013.75
2023-05-15T12:16:11.509Z,100011.44
2023-05-15T12:18:39.034Z,99996.63
2023-05-15T12:21:06.460Z,99987.69
2023-05-15T12:23:33.830Z,99992.25
2023-05-15T12:26:03.196Z,99991.22
2023-05-15T12:28:32.012Z,99983.84
2023-05-15T12:30:59.723Z,99983.16
2023-05-15T12:33:27.250Z,99977.59
2023-05-15T12:35:56.899Z,99978.03
2023-05-15T12:38:28.076Z,99973.91
2023-05-15T12:40:55.509Z,99964.94
2023-05-15T12:43:26.338Z,99973.84
2023-05-15T12:45:54.720Z,99978.34
2023-05-15T12:48:22.241Z,99964.44
2023-05-15T12:50:50.372Z,99959.97
2023-05-15T12:53:24.364Z,99966.41
2023-05-15T12:55:54.680Z,99969.75
2023-05-15T12:58:22.120Z,99963.03
2023-05-15T13:00:51.764Z,99967.00
2023-05-15T13:03:21.293Z,99961.34
2023-05-15T13:05:48.837Z,99969.22
2023-05-15T13:08:17.529Z,99968.84
2023-05-15T13:10:45.620Z,99963.00
2023-05-15T13:13:13.296Z,99958.78
2023-05-15T13:15:45.699Z,99953.28
2023-05-15T13:18:14.585Z,99953.72
2023-05-15T13:20:42.042Z,99948.63
2023-05-15T13:23:10.512Z,99946.19
2023-05-15T13:25:37.904Z,99946.13
2023-05-15T13:28:06.213Z,99933.66
2023-05-15T13:30:36.925Z,99930.78
2023-05-15T13:33:05.008Z,99931.72
2023-05-15T13:35:32.454Z,99937.78
2023-05-15T13:37:59.721Z,99950.94
2023-05-15T13:40:27.762Z,99941.50
2023-05-15T13:42:55.190Z,99939.50
2023-05-15T13:45:22.622Z,99935.97
2023-05-15T13:47:50.401Z,99932.25
2023-05-15T13:50:18.160Z,99942.16
2023-05-15T13:52:47.746Z,99935.63
2023-05-15T13:55:15.242Z,99920.09
2023-05-15T13:57:43.362Z,99924.34
2023-05-15T14:00:13.162Z,99911.09
2023-05-15T14:02:41.565Z,99915.44
2023-05-15T14:05:13.013Z,99916.63
2023-05-15T14:07:40.829Z,99913.63
2023-05-15T14:10:08.337Z,99912.00
2023-05-15T14:12:36.752Z,99908.19
2023-05-15T14:15:04.436Z,99910.16
2023-05-15T14:17:32.972Z,99914.19
2023-05-15T14:20:00.484Z,99911.28
2023-05-15T14:22:28.073Z,99904.97
2023-05-15T14:24:55.595Z,99903.97
2023-05-15T14:27:22.995Z,99895.06
2023-05-15T14:29:51.428Z,99897.69
2023-05-15T14:32:19.314Z,99911.31
2023-05-15T14:34:46.815Z,99904.94
2023-05-15T14:37:14.798Z,99920.53
2023-05-15T14:39:51.967Z,99928.88
2023-05-15T14:42:20.677Z,99925.44
2023-05-15T14:44:48.616Z,99916.53
2023-05-15T14:47:16.950Z,99927.56
2023-05-15T14:49:44.312Z,99926.22
2023-05-15T14:52:12.430Z,99922.47
2023-05-15T14:54:40.064Z,99925.44
2023-05-15T14:57:07.975Z,99924.28
2023-05-15T14:59:36.021Z,99930.34
2023-05-15T15:02:03.586Z,99928.31
2023-05-15T15:04:34.485Z,99926.63
2023-05-15T15:07:05.487Z,99928.75
2023-05-15T15:09:33.028Z,99925.41
2023-05-15T15:12:00.769Z,99923.22
2023-05-15T15:14:28.283Z,99918.88
2023-05-15T15:16:55.986Z,99912.31
2023-05-15T15:19:23.731Z,99923.75
2023-05-15T15:21:51.146Z,99928.72
2023-05-15T15:24:18.681Z,99922.28
2023-05-15T15:26:46.049Z,99923.41
2023-05-15T15:29:13.429Z,99930.63
2023-05-15T15:31:41.885Z,99929.53
2023-05-15T15:34:10.796Z,99937.28
2023-05-15T15:36:39.372Z,99933.63
2023-05-15T15:39:06.752Z,99932.91
2023-05-15T15:41:37.289Z,99937.28
2023-05-15T15:44:06.235Z,99936.03
2023-05-15T15:46:33.660Z,99938.75
2023-05-15T15:49:02.281Z,99935.75
2023-05-15T15:51:30.779Z,99941.06
2023-05-15T15:53:58.048Z,99934.09
2023-05-15T15:56:25.311Z,99933.50
2023-05-15T15:58:52.613Z,99938.72
2023-05-15T16:01:20.705Z,99939.53
2023-05-15T16:03:48.165Z,99943.84
2023-05-15T16:06:15.665Z,99939.16
2023-05-15T16:08:42.879Z,99936.38
2023-05-15T16:11:10.204Z,99930.84
2023-05-15T16:13:39.650Z,99933.09
2023-05-15T16:16:08.329Z,99937.00
2023-05-15T16:18:35.840Z,99928.28
2023-05-15T16:21:03.428Z,99929.59
2023-05-15T16:23:37.442Z,99933.16
2023-05-15T16:26:04.976Z,99926.63
2023-05-15T16:28:32.640Z,99921.69
2023-05-15T16:31:00.033Z,99918.94
2023-05-15T16:33:27.720Z,99912.41
2023-05-15T16:35:55.279Z,99907.13
2023-05-15T16:38:23.026Z,99901.19
2023-05-15T16:40:50.658Z,99904.78
2023-05-15T16:43:19.115Z,99905.34
2023-05-15T16:45:46.537Z,99903.97
2023-05-15T16:48:14.197Z,99905.91
2023-05-15T16:50:41.766Z,99910.63
2023-05-15T16:53:09.360Z,99908.44
2023-05-15T16:55:36.701Z,99902.00
2023-05-15T16:58:04.028Z,99896.50
2023-05-15T17:00:31.861Z,99900.38
2023-05-15T17:02:59.301Z,99898.16
2023-05-15T17:05:26.627Z,99897.06
2023-05-15T17:07:53.950Z,99890.66
2023-05-15T17:10:21.328Z,99887.03
2023-05-15T17:12:48.653Z,99894.53
2023-05-15T17:15:15.875Z,99888.56
2023-05-15T17:17:43.369Z,99884.13
2023-05-15T17:20:11.145Z,99879.81
2023-05-15T17:22:38.501Z,99878.16
2023-05-15T17:25:07.227Z,99877.03
2023-05-15T17:27:38.062Z,99870.69
2023-05-15T17:30:06.209Z,99872.19
2023-05-15T17:32:41.869Z,99877.03
2023-05-15T17:35:10.300Z,99876.22
2023-05-15T17:37:37.985Z,99882.59
2023-05-15T17:40:06.060Z,99893.50
2023-05-15T17:42:33.426Z,99888.91
2023-05-15T17:45:00.900Z,99886.69
2023-05-15T17:47:28.413Z,99888.88
2023-05-15T17:49:56.115Z,99879.03
2023-05-15T17:52:23.408Z,99879.44
2023-05-15T17:54:51.035Z,99879.94
2023-05-15T17:57:18.524Z,99872.22
2023-05-15T17:59:45.955Z,99876.25
2023-05-15T18:02:13.390Z,99884.13
2023-05-15T18:04:40.732Z,99890.13
2023-05-15T18:07:07.981Z,99891.19
2023-05-15T18:09:35.449Z,99896.28
2023-05-15T18:12:14.594Z,99892.69
2023-05-15T18:14:42.156Z,99882.06
2023-05-15T18:17:09.486Z,99887.47
2023-05-15T18:19:41.254Z,99878.31
2023-05-15T18:22:10.893Z,99870.59
2023-05-15T18:24:38.388Z,99871.34
2023-05-15T18:27:05.866Z,99872.44
2023-05-15T18:29:33.174Z,99867.06
2023-05-15T18:32:00.702Z,99861.19
2023-05-15T18:34:28.226Z,99859.16
2023-05-15T18:36:55.799Z,99866.84
2023-05-15T18:39:23.151Z,99870.69
2023-05-15T18:41:51.581Z,99871.47
2023-05-15T18:44:19.031Z,99867.94
2023-05-15T18:46:46.895Z,99870.38
2023-05-15T18:49:17.261Z,99874.34
2023-05-15T18:51:46.047Z,99884.25
2023-05-15T18:54:13.613Z,99877.31
2023-05-15T18:56:43.138Z,99889.28
2023-05-15T18:59:10.739Z,99883.84
2023-05-15T19:01:42.159Z,99890.16
2023-05-15T19:04:10.309Z,99896.47
2023-05-15T19:06:37.696Z,99902.72
2023-05-15T19:09:05.120Z,99903.78
2023-05-15T19:11:32.555Z,99903.69
2023-05-15T19:14:00.140Z,99906.69
2023-05-15T19:16:28.909Z,99909.94
2023-05-15T19:18:56.582Z,99918.03
2023-05-15T19:21:24.604Z,99921.25
2023-05-15T19:23:58.270Z,99918.03
2023-05-15T19:26:28.749Z,99922.31
2023-05-15T19:28:57.298Z,99926.50
2023-05-15T19:31:31.280Z,99920.28
2023-05-15T19:34:01.000Z,99924.91
2023-05-15T19:36:32.617Z,99923.97
2023-05-15T19:39:03.449Z,99925.38
2023-05-15T19:41:31.719Z,99925.84
2023-05-15T19:43:59.929Z,99924.78
2023-05-15T19:46:28.684Z,99931.09
2023-05-15T19:48:57.755Z,99930.28
2023-05-15T19:55:28.338Z,99933.78
2023-05-15T19:57:56.316Z,99938.78
2023-05-15T20:00:24.166Z,99940.69
2023-05-15T20:02:52.748Z,99941.41
2023-05-15T20:05:20.477Z,99934.63
2023-05-15T20:07:48.261Z,99944.72
2023-05-15T20:10:18.594Z,99935.19
2023-05-15T20:12:46.974Z,99935.66
2023-05-15T20:15:15.277Z,99944.25
2023-05-15T20:17:47.756Z,99941.75
2023-05-15T20:20:15.341Z,99944.50
2023-05-15T20:22:50.804Z,99944.69
2023-05-15T20:25:32.117Z,99938.88
2023-05-15T20:28:16.755Z,99937.19
2023-05-15T20:30:59.122Z,99939.94
2023-05-15T20:33:51.523Z,99929.03
2023-05-15T20:36:34.263Z,99933.69
2023-05-15T20:39:22.073Z,99929.59
2023-05-15T20:42:00.500Z,99927.91
2023-05-15T20:44:53.023Z,99925.03
2023-05-15T21:05:20.388Z,99929.22
2023-05-15T21:07:53.221Z,99926.13
2023-05-15T21:10:37.568Z,99933.00
2023-05-15T21:13:09.763Z,99925.09
2023-05-15T21:15:44.851Z,99931.78
2023-05-15T21:18:16.686Z,99922.75
2023-05-15T21:23:50.084Z,99922.00
2023-05-15T21:26:39.520Z,99915.56
2023-05-15T21:29:19.584Z,99924.34
2023-05-15T21:38:06.610Z,99905.06
2023-05-15T21:52:22.806Z,99903.31
2023-05-15T21:54:53.358Z,99887.84
2023-05-15T21:57:35.570Z,99895.22
2023-05-15T22:00:11.122Z,99902.31
2023-05-15T22:02:51.210Z,99896.47
2023-05-15T22:05:47.772Z,99899.09
2023-05-15T22:08:24.419Z,99892.69
2023-05-15T22:11:05.914Z,99899.00
2023-05-15T22:13:55.461Z,99890.09
2023-05-15T22:17:06.519Z,99896.75
2023-05-15T22:19:45.208Z,99889.84
2023-05-15T22:22:29.539Z,99887.22
2023-05-15T22:25:03.089Z,99887.34
2023-05-15T22:28:02.644Z,99887.97
2023-05-15T22:30:47.745Z,99888.91
2023-05-15T22:33:51.062Z,99881.88
2023-05-15T22:36:34.313Z,99886.06
2023-05-15T22:39:52.430Z,99891.19
2023-05-15T22:42:27.458Z,99882.50
2023-05-15T22:45:38.464Z,99892.47
2023-05-15T22:48:20.316Z,99885.22
2023-05-15T22:50:59.091Z,99872.22
2023-05-15T22:53:59.977Z,99864.88
2023-05-15T22:56:39.245Z,99871.50
2023-05-15T22:59:16.458Z,99867.50
2023-05-15T23:01:53.929Z,99865.09
2023-05-15T23:04:26.445Z,99868.94
2023-05-15T23:07:10.228Z,99859.63
2023-05-15T23:10:02.432Z,99857.75
2023-05-15T23:12:45.873Z,99856.06
2023-05-15T23:15:24.704Z,99859.38
2023-05-15T23:18:00.208Z,99862.72
2023-05-15T23:20:30.109Z,99871.66
2023-05-15T23:23:02.912Z,99867.94
2023-05-15T23:25:45.490Z,99868.63
2023-05-15T23:28:24.999Z,99858.38
2023-05-15T23:30:58.247Z,99851.69
2023-05-15T23:33:38.521Z,99862.69
2023-05-15T23:36:16.081Z,99858.88
2023-05-15T23:38:52.288Z,99854.81
2023-05-15T23:41:38.138Z,99845.47
2023-05-15T23:44:26.266Z,99849.06
2023-05-15T23:47:28.949Z,99850.00
2023-05-15T23:50:30.786Z,99840.00
2023-05-15T23:53:15.746Z,99845.72
2023-05-15T23:58:58.381Z,99826.88
